FW8893 Weather Reports


Display with metric or nautical units.
time (UTC)temp
F
wind
direction
speed
MPH
gust
MPH
rain 1hr
in
rain 24hr
in
rain mn
in
humidity
%
barometer
mb
20240521191351 84 195 0.0 1.0 0.00 0.00 0.00 57 1011.1
20240521190851 85 260 4.0 5.0 0.00 0.00 0.00 55 1011.1
20240521190349 85 270 4.0 6.0 0.00 0.00 0.00 55 1010.7
20240521185848 85 223 1.0 1.0 0.00 0.00 0.00 57 1011.1
20240521185347 86 43 2.0 2.0 0.00 0.00 0.00 55 1011.1
20240521184845 86 314 4.0 6.0 0.00 0.00 0.00 55 1011.1
20240521184343 85 276 2.0 2.0 0.00 0.00 0.00 56 1011.1
20240521183841 86 277 4.0 5.0 0.00 0.00 0.00 58 1011.1
20240521183341 86 250 3.0 3.0 0.00 0.00 0.00 56 1011.1
20240521182838 85 285 3.0 3.0 0.00 0.00 0.00 56 1011.1
20240521182337 84 231 3.0 5.0 0.00 0.00 0.00 61 1011.1
20240521181837 84 251 3.0 6.0 0.00 0.00 0.00 57 1011.4
20240521181336 85 292 1.0 3.0 0.00 0.00 0.00 60 1011.1
20240521180835 85 311 4.0 6.0 0.00 0.00 0.00 57 1011.1
20240521180333 85 240 1.0 1.0 0.00 0.00 0.00 57 1011.1
20240521175831 85 249 1.0 2.0 0.00 0.00 0.00 57 1011.1
20240521175330 85 220 3.0 3.0 0.00 0.00 0.00 56 1011.4
20240521174828 84 192 0.0 1.0 0.00 0.00 0.00 60 1011.4
20240521174327 84 331 0.0 1.0 0.00 0.00 0.00 57 1011.4
20240521173825 85 255 2.0 2.0 0.00 0.00 0.00 58 1011.4
20240521173323 85 190 2.0 2.0 0.00 0.00 0.00 57 1011.4
20240521172820 85 147 2.0 2.0 0.00 0.00 0.00 57 1011.4
20240521172318 85 282 3.0 3.0 0.00 0.00 0.00 60 1011.4
20240521171816 85 261 2.0 2.0 0.00 0.00 0.00 58 1011.4
20240521171313 84 237 2.0 2.0 0.00 0.00 0.00 57 1011.8
20240521170813 83 203 3.0 3.0 0.00 0.00 0.00 56 1011.4
20240521170312 83 74 1.0 1.0 0.00 0.00 0.00 56 1011.8
20240521165811 83 235 0.0 1.0 0.00 0.00 0.00 56 1011.8
20240521165311 83 134 0.0 1.0 0.00 0.00 0.00 59 1011.8
20240521164810 83 189 2.0 3.0 0.00 0.00 0.00 58 1012.1
20240521164308 82 153 1.0 1.0 0.00 0.00 0.00 57 1012.1
20240521163805 82 313 3.0 5.0 0.00 0.00 0.00 59 1012.1
20240521163305 82 235 0.0 1.0 0.00 0.00 0.00 57 1012.4
20240521162805 81 207 0.0 0.0 0.00 0.00 0.00 60 1012.1
20240521162304 80 252 0.0 0.0 0.00 0.00 0.00 60 1012.4
20240521161802 80 280 1.0 2.0 0.00 0.00 0.00 63 1012.4
20240521161300 79 181 1.0 1.0 0.00 0.00 0.00 63 1012.4
20240521160759 78 68 1.0 1.0 0.00 0.00 0.00 67 1012.8
20240521160258 78 312 1.0 2.0 0.00 0.00 0.00 68 1012.4
20240521155757 78 280 0.0 1.0 0.00 0.00 0.00 68 1012.4
20240521155255 78 299 2.0 2.0 0.00 0.00 0.00 68 1012.8
20240521154754 77 216 1.0 2.0 0.00 0.00 0.00 70 1012.8
20240521154252 77 152 0.0 1.0 0.00 0.00 0.00 70 1012.8
20240521153752 76 225 1.0 2.0 0.00 0.00 0.00 71 1012.8
20240521153250 77 270 2.0 3.0 0.00 0.00 0.00 70 1013.1
20240521152748 77 253 1.0 2.0 0.00 0.00 0.00 71 1013.1
20240521152246 76 191 0.0 0.0 0.00 0.00 0.00 70 1012.8
20240521151743 76 282 4.0 5.0 0.00 0.00 0.00 71 1012.8
20240521151242 76 219 1.0 1.0 0.00 0.00 0.00 70 1013.1
20240521150741 76 184 0.0 0.0 0.00 0.00 0.00 72 1013.1
20240521150238 75 209 0.0 1.0 0.00 0.00 0.00 71 1013.1
20240521145737 74 190 1.0 1.0 0.00 0.00 0.00 74 1013.1
20240521145235 74 208 1.0 2.0 0.00 0.00 0.00 74 1013.1
20240521144734 72 224 0.0 1.0 0.00 0.00 0.00 75 1013.4
20240521144233 71 98 2.0 2.0 0.00 0.00 0.00 77 1013.1
20240521143731 71 149 4.0 5.0 0.00 0.00 0.00 76 1013.1
20240521143230 71 293 3.0 3.0 0.00 0.00 0.00 79 1013.4
20240521142726 71 186 0.0 0.0 0.00 0.00 0.00 79 1013.4
20240521142225 70 197 0.0 1.0 0.00 0.00 0.00 79 1013.4
20240521141724 69 190 1.0 1.0 0.00 0.00 0.00 81 1013.4
20240521141221 68 211 0.0 0.0 0.00 0.00 0.00 81 1013.8
20240521140719 68 186 1.0 1.0 0.00 0.00 0.00 83 1013.4
20240521140204 68 203 0.0 0.0 0.00 0.00 0.00 82 1013.8
20240521135703 67 173 0.0 0.0 0.00 0.00 0.00 82 1013.4
20240521135200 66 188 0.0 0.0 0.00 0.00 0.00 83 1013.8
20240521134659 65 195 0.0 0.0 0.00 0.00 0.00 84 1013.8
20240521134159 64 241 2.0 2.0 0.00 0.00 0.00 86 1013.4
20240521133658 64 245 3.0 3.0 0.00 0.00 0.00 87 1013.4
20240521133157 64 273 2.0 2.0 0.00 0.00 0.00 86 1013.4
20240521132658 64 195 1.0 2.0 0.00 0.00 0.00 85 1013.4
20240521132156 64 252 2.0 2.0 0.00 0.00 0.00 85 1013.8
20240521131656 64 198 0.0 0.0 0.00 0.00 0.00 86 1013.8
20240521131154 64 227 0.0 0.0 0.00 0.00 0.00 86 1013.8
20240521130653 63 253 0.0 1.0 0.00 0.00 0.00 86 1013.8
20240521130152 62 212 0.0 1.0 0.00 0.00 0.00 88 1013.8
20240521125650 60 229 0.0 0.0 0.00 0.00 0.00 91 1013.8
20240521125149 59 250 1.0 2.0 0.00 0.00 0.00 92 1013.8
20240521124648 58 236 1.0 2.0 0.00 0.00 0.00 92 1013.8
20240521124145 57 262 2.0 3.0 0.00 0.00 0.00 94 1014.1
20240521123643 57 226 1.0 2.0 0.00 0.00 0.00 93 1014.1
20240521123142 57 250 2.0 2.0 0.00 0.00 0.00 94 1013.8
20240521122638 57 280 3.0 3.0 0.00 0.00 0.00 95 1013.8
20240521122134 56 208 0.0 0.0 0.00 0.00 0.00 98 1013.8
20240521121633 55 215 0.0 0.0 0.00 0.00 0.00 99 1013.8
20240521121129 54 273 2.0 2.0 0.00 0.00 0.00 99 1013.8
20240521120628 54 21 1.0 2.0 0.00 0.00 0.00 99 1013.8
20240521120126 53 246 0.0 1.0 0.00 0.00 0.00 99 1013.8
20240521115622 53 233 0.0 0.0 0.00 0.00 0.00 99 1013.8
20240521115121 53 264 2.0 2.0 0.00 0.00 0.00 99 1013.8
20240521114620 53 268 1.0 2.0 0.00 0.00 0.00 99 1013.8
20240521114117 53 201 0.0 1.0 0.00 0.00 0.00 99 1013.8
20240521113615 53 205 0.0 0.0 0.00 0.00 0.00 99 1013.8
20240521113114 53 222 3.0 3.0 0.00 0.00 0.00 99 1013.8
20240521112611 52 59 0.0 1.0 0.00 0.00 0.00 99 1013.8
20240521112110 52 212 1.0 1.0 0.00 0.00 0.00 99 1013.8
20240521111609 52 195 3.0 5.0 0.00 0.00 0.00 99 1013.8
20240521111106 52 262 5.0 7.0 0.00 0.00 0.00 99 1013.4
20240521110606 52 240 1.0 1.0 0.00 0.00 0.00 99 1013.4
20240521110105 52 230 0.0 1.0 0.00 0.00 0.00 99 1013.4
20240521105603 52 219 0.0 1.0 0.00 0.00 0.00 99 1013.8
20240521105103 52 248 1.0 2.0 0.00 0.00 0.00 99 1013.8
20240521104559 52 207 0.0 0.0 0.00 0.00 0.00 99 1013.8
20240521104058 52 207 0.0 0.0 0.00 0.00 0.00 99 1013.8
20240521103555 51 209 1.0 2.0 0.00 0.00 0.00 99 1013.4
20240521103054 51 225 1.0 1.0 0.00 0.00 0.00 99 1013.4
20240521102553 51 208 0.0 0.0 0.00 0.00 0.00 99 1013.4
20240521102052 51 207 0.0 0.0 0.00 0.00 0.00 99 1013.4
20240521101551 51 208 1.0 2.0 0.00 0.00 0.00 99 1013.8
20240521101049 50 261 1.0 2.0 0.00 0.00 0.00 99 1013.4
20240521100548 50 218 0.0 0.0 0.00 0.00 0.00 99 1013.8
20240521100046 50 189 0.0 0.0 0.00 0.00 0.00 99 1013.4
20240521095545 50 217 0.0 1.0 0.00 0.00 0.00 99 1013.4
20240521095044 50 219 0.0 1.0 0.00 0.00 0.00 99 1013.4
20240521094544 50 193 0.0 0.0 0.00 0.00 0.00 99 1013.4
20240521094042 50 197 0.0 0.0 0.00 0.00 0.00 99 1013.4
20240521093542 50 190 0.0 0.0 0.00 0.00 0.00 99 1013.4
20240521093041 49 194 0.0 0.0 0.00 0.00 0.00 99 1013.1
20240521092540 50 180 0.0 0.0 0.00 0.00 0.00 99 1013.4
20240521092039 50 210 0.0 0.0 0.00 0.00 0.00 99 1013.4
20240521091538 50 179 0.0 0.0 0.00 0.00 0.00 99 1013.1
20240521091037 50 199 0.0 0.0 0.00 0.00 0.00 99 1013.4
20240521090536 51 202 0.0 0.0 0.00 0.00 0.00 99 1013.4
20240521090034 51 197 0.0 1.0 0.00 0.00 0.00 99 1013.4
20240521085532 51 186 1.0 2.0 0.00 0.00 0.00 98 1013.4
20240521085031 50 186 0.0 0.0 0.00 0.00 0.00 99 1013.1
20240521084529 51 194 0.0 0.0 0.00 0.00 0.00 98 1013.1
20240521084027 51 167 0.0 1.0 0.00 0.00 0.00 98 1013.4
20240521083527 51 207 0.0 1.0 0.00 0.00 0.00 98 1013.1
20240521083025 51 234 1.0 2.0 0.00 0.00 0.00 98 1013.4
20240521082523 51 230 0.0 0.0 0.00 0.00 0.00 98 1013.1
20240521082021 51 211 0.0 1.0 0.00 0.00 0.00 98 1013.1
20240521081520 51 200 1.0 2.0 0.00 0.00 0.00 98 1013.1
20240521081019 51 310 1.0 2.0 0.00 0.00 0.00 98 1013.1
20240521080518 51 213 0.0 0.0 0.00 0.00 0.00 98 1012.8
20240521080017 51 247 1.0 1.0 0.00 0.00 0.00 98 1013.1
20240521075515 51 221 2.0 2.0 0.00 0.00 0.00 98 1013.1
20240521075014 51 199 1.0 2.0 0.00 0.00 0.00 98 1013.1
20240521074512 51 238 1.0 3.0 0.00 0.00 0.00 98 1012.8
20240521074012 51 172 0.0 1.0 0.00 0.00 0.00 98 1013.1
20240521073511 51 238 3.0 5.0 0.00 0.00 0.00 98 1013.1
20240521073010 51 203 2.0 2.0 0.00 0.00 0.00 98 1013.4
20240521072509 51 203 5.0 6.0 0.00 0.00 0.00 98 1013.4
20240521072008 51 152 2.0 2.0 0.00 0.00 0.00 98 1013.4
20240521071507 51 246 1.0 2.0 0.00 0.00 0.00 98 1013.4
20240521071007 51 204 1.0 2.0 0.00 0.00 0.00 97 1013.4
20240521070506 51 212 1.0 2.0 0.00 0.00 0.00 97 1013.4
20240521070003 51 185 0.0 1.0 0.00 0.00 0.00 97 1013.1
20240521065502 51 194 0.0 1.0 0.00 0.00 0.00 97 1013.8
20240521065000 51 214 2.0 2.0 0.00 0.00 0.00 97 1013.8
20240521064500 51 210 1.0 1.0 0.00 0.00 0.00 97 1013.8
20240521063959 51 215 0.0 1.0 0.00 0.00 0.00 97 1013.8
20240521063458 52 231 0.0 1.0 0.00 0.00 0.00 97 1013.8
20240521062958 52 277 3.0 3.0 0.00 0.00 0.00 97 1013.8
20240521062456 52 214 1.0 1.0 0.00 0.00 0.00 97 1013.8
20240521061955 52 193 0.0 1.0 0.00 0.00 0.00 97 1013.8
20240521061454 52 50 3.0 3.0 0.00 0.00 0.00 97 1013.8
20240521060952 52 194 2.0 3.0 0.00 0.00 0.00 97 1013.4
20240521060449 52 260 2.0 2.0 0.00 0.00 0.00 97 1013.8
20240521055948 52 236 2.0 2.0 0.00 0.00 0.00 97 1013.8
20240521055447 52 211 0.0 0.0 0.00 0.00 0.00 97 1013.8
20240521054945 52 219 1.0 1.0 0.00 0.00 0.00 97 1013.8
20240521054445 51 131 1.0 1.0 0.00 0.00 0.00 98 1014.5
20240521053944 51 237 3.0 5.0 0.00 0.00 0.00 98 1013.8
20240521053444 51 260 1.0 2.0 0.00 0.00 0.00 97 1013.8
20240521052942 51 176 0.0 1.0 0.00 0.00 0.00 97 1014.1
20240521052440 52 216 0.0 0.0 0.00 0.00 0.00 97 1014.1
20240521051938 52 191 1.0 1.0 0.00 0.00 0.00 97 1014.1
20240521051437 52 265 1.0 1.0 0.00 0.00 0.00 97 1014.5
20240521050934 52 201 3.0 5.0 0.00 0.00 0.00 97 1014.5
20240521050432 52 272 2.0 2.0 0.00 0.00 0.00 97 1014.5
20240521045932 52 265 0.0 1.0 0.00 0.00 0.00 97 1014.5
20240521045429 52 215 1.0 2.0 0.00 0.00 0.00 97 1014.5
20240521044928 53 200 1.0 1.0 0.00 0.00 0.00 97 1014.8
20240521044426 53 216 2.0 3.0 0.00 0.00 0.00 97 1014.5
20240521043925 53 259 3.0 5.0 0.00 0.00 0.00 97 1014.5
20240521043424 53 250 0.0 1.0 0.00 0.00 0.00 97 1014.5
20240521042923 53 17 3.0 3.0 0.00 0.00 0.00 97 1014.8
20240521042422 53 275 2.0 2.0 0.00 0.00 0.00 97 1014.5
20240521041921 53 252 2.0 3.0 0.00 0.00 0.00 97 1014.8
20240521041421 52 274 2.0 3.0 0.00 0.00 0.00 97 1014.5
20240521040920 52 235 1.0 2.0 0.00 0.00 0.00 97 1014.8
20240521040420 52 173 1.0 2.0 0.00 0.00 0.00 97 1014.8
20240521035918 52 274 3.0 5.0 0.00 0.00 0.00 96 1014.8
20240521035416 52 217 3.0 5.0 0.00 0.00 0.00 97 1014.8
20240521034914 52 245 1.0 2.0 0.00 0.00 0.00 96 1014.8
20240521034413 52 279 0.0 1.0 0.00 0.00 0.00 96 1015.1
20240521033913 53 214 0.0 1.0 0.00 0.00 0.00 96 1015.1
20240521033412 53 203 0.0 0.0 0.00 0.00 0.00 96 1015.1
20240521032911 53 208 0.0 0.0 0.00 0.00 0.00 96 1015.5
20240521032409 53 182 0.0 1.0 0.00 0.00 0.00 96 1015.1
20240521031908 53 221 1.0 2.0 0.00 0.00 0.00 96 1015.1
20240521031407 53 210 1.0 1.0 0.00 0.00 0.00 96 1014.8
20240521030906 53 279 0.0 1.0 0.00 0.00 0.00 96 1015.1
20240521030405 53 211 0.0 0.0 0.00 0.00 0.00 96 1015.5
20240521025902 53 191 0.0 1.0 0.00 0.00 0.00 96 1015.1
20240521025402 53 219 0.0 0.0 0.00 0.00 0.00 96 1015.1
20240521024900 53 204 0.0 1.0 0.00 0.00 0.00 96 1014.8
20240521024359 53 210 1.0 1.0 0.00 0.00 0.00 96 1015.1
20240521023857 53 200 2.0 2.0 0.00 0.00 0.00 96 1015.1
20240521023357 53 183 3.0 5.0 0.00 0.00 0.00 96 1015.1
20240521022855 53 229 1.0 2.0 0.00 0.00 0.00 96 1015.1
20240521022355 53 219 1.0 1.0 0.00 0.00 0.00 95 1015.1
20240521021854 53 277 2.0 2.0 0.00 0.00 0.00 95 1015.1
20240521021351 53 188 0.0 0.0 0.00 0.00 0.00 95 1015.1
20240521020849 54 198 0.0 1.0 0.00 0.00 0.00 95 1015.1
20240521020347 54 262 1.0 2.0 0.00 0.00 0.00 95 1014.8
20240521015844 54 261 3.0 5.0 0.00 0.00 0.00 94 1014.8
20240521015342 54 260 2.0 3.0 0.00 0.00 0.00 94 1014.8
20240521014838 54 226 2.0 2.0 0.00 0.00 0.00 94 1014.8
20240521014336 54 204 3.0 3.0 0.00 0.00 0.00 94 1015.1
20240521013833 54 234 1.0 2.0 0.00 0.00 0.00 94 1015.1
20240521013332 54 222 0.0 0.0 0.00 0.00 0.00 94 1015.1
20240521012826 54 213 0.0 0.0 0.00 0.00 0.00 94 1015.1
20240521012325 54 254 1.0 1.0 0.00 0.00 0.00 94 1014.8
20240521011819 54 208 0.0 0.0 0.00 0.00 0.00 94 1014.8
20240521011317 54 210 0.0 0.0 0.00 0.00 0.00 94 1014.8
20240521010816 55 215 0.0 0.0 0.00 0.00 0.00 94 1015.1
20240521010314 55 203 0.0 1.0 0.00 0.00 0.00 93 1014.8
20240521005814 55 216 0.0 1.0 0.00 0.00 0.00 93 1014.8
20240521005313 55 245 2.0 2.0 0.00 0.00 0.00 92 1014.8
20240521004812 55 239 1.0 1.0 0.00 0.00 0.00 92 1014.5
20240521004310 56 265 1.0 2.0 0.00 0.00 0.00 91 1014.8
20240521003808 56 226 0.0 0.0 0.00 0.00 0.00 91 1014.5
20240521003307 56 214 2.0 2.0 0.00 0.00 0.00 91 1014.5
20240521002806 56 214 0.0 0.0 0.00 0.00 0.00 90 1014.8
20240521002305 57 231 1.0 2.0 0.00 0.00 0.00 90 1014.8
20240521001803 57 227 1.0 2.0 0.00 0.00 0.00 90 1014.8
20240521001303 57 215 0.0 0.0 0.00 0.00 0.00 90 1014.5
20240521000803 57 241 1.0 1.0 0.00 0.00 0.00 91 1014.5
20240521000302 58 239 1.0 1.0 0.00 0.00 0.00 90 1014.5
20240520235758 58 228 1.0 1.0 0.00 0.00 0.00 90 1014.5
20240520235258 58 218 1.0 1.0 0.00 0.00 0.00 89 1014.5
20240520234757 58 237 1.0 1.0 0.00 0.00 0.00 89 1014.5
20240520234255 59 213 1.0 1.0 0.00 0.00 0.00 88 1014.5
20240520233754 59 239 1.0 1.0 0.00 0.00 0.00 88 1014.5
20240520233252 60 229 1.0 1.0 0.00 0.00 0.00 87 1014.5
20240520232751 60 250 2.0 2.0 0.00 0.00 0.00 86 1014.5
20240520232250 60 241 1.0 2.0 0.00 0.00 0.00 86 1014.8
20240520231749 60 227 1.0 1.0 0.00 0.00 0.00 86 1014.5
20240520231247 61 230 1.0 1.0 0.00 0.00 0.00 86 1014.8
20240520230747 61 213 0.0 0.0 0.00 0.00 0.00 85 1014.8
20240520230246 61 226 0.0 1.0 0.00 0.00 0.00 84 1014.5
20240520225743 62 208 0.0 0.0 0.00 0.00 0.00 83 1014.5
20240520225242 62 227 3.0 5.0 0.00 0.00 0.00 83 1014.5
20240520224739 62 256 2.0 2.0 0.00 0.00 0.00 83 1014.5
20240520224236 63 226 2.0 2.0 0.00 0.00 0.00 82 1014.5
20240520223736 63 255 2.0 2.0 0.00 0.00 0.00 82 1014.8
20240520223235 63 271 2.0 2.0 0.00 0.00 0.00 82 1014.8
20240520222733 63 278 3.0 3.0 0.00 0.00 0.00 81 1014.5
20240520222233 64 241 1.0 2.0 0.00 0.00 0.00 82 1014.8
20240520221732 64 249 2.0 2.0 0.00 0.00 0.00 81 1014.8
20240520221230 64 242 1.0 2.0 0.00 0.00 0.00 81 1015.1
20240520220728 64 280 2.0 3.0 0.00 0.00 0.00 81 1014.8
20240520220227 64 247 2.0 2.0 0.00 0.00 0.00 81 1015.1
20240520215726 64 232 1.0 2.0 0.00 0.00 0.00 81 1014.8
20240520215224 64 264 2.0 2.0 0.00 0.00 0.00 80 1014.8
20240520214723 64 265 5.0 6.0 0.00 0.00 0.00 80 1015.1
20240520214222 65 171 2.0 2.0 0.00 0.00 0.00 81 1014.8
20240520213721 65 262 2.0 2.0 0.00 0.00 0.00 80 1014.8
20240520213220 65 241 1.0 2.0 0.00 0.00 0.00 80 1015.1
20240520212715 65 275 4.0 6.0 0.00 0.00 0.00 79 1015.1
20240520212214 66 262 1.0 2.0 0.00 0.00 0.00 79 1014.8
20240520211713 66 243 2.0 2.0 0.00 0.00 0.00 79 1015.1
20240520211213 66 246 2.0 3.0 0.00 0.00 0.00 78 1014.8
20240520210710 66 276 3.0 3.0 0.00 0.00 0.00 78 1015.1
20240520210210 66 277 2.0 3.0 0.00 0.00 0.00 78 1015.1
20240520205709 66 261 2.0 3.0 0.00 0.00 0.00 77 1015.1
20240520205209 66 258 1.0 2.0 0.00 0.00 0.00 78 1015.1
20240520204708 66 246 2.0 2.0 0.00 0.00 0.00 78 1015.5
20240520204206 67 280 3.0 5.0 0.00 0.00 0.00 77 1015.1
20240520203703 67 263 3.0 5.0 0.00 0.00 0.00 76 1015.5
20240520203203 68 297 6.0 7.0 0.00 0.00 0.00 75 1015.1
20240520202703 68 281 3.0 3.0 0.00 0.00 0.00 74 1015.1
20240520202202 68 241 2.0 2.0 0.00 0.00 0.00 75 1015.1
20240520201700 68 210 2.0 3.0 0.00 0.00 0.00 76 1015.1
20240520201158 68 254 2.0 3.0 0.00 0.00 0.00 76 1015.1
20240520200657 68 220 2.0 3.0 0.00 0.00 0.00 74 1015.1
20240520200157 68 177 2.0 2.0 0.00 0.00 0.00 74 1015.5
20240520195656 68 276 2.0 2.0 0.00 0.00 0.00 76 1015.5
20240520195155 68 187 0.0 1.0 0.00 0.00 0.00 75 1015.5
20240520194654 68 243 3.0 3.0 0.00 0.00 0.00 76 1015.5
20240520194154 67 290 2.0 5.0 0.00 0.00 0.00 77 1015.8
20240520193653 68 252 6.0 7.0 0.00 0.00 0.00 74 1015.8
20240520193152 67 258 3.0 3.0 0.00 0.00 0.00 77 1015.5
20240520192649 67 229 3.0 3.0 0.00 0.00 0.00 78 1015.5
20240520192147 68 283 4.0 6.0 0.00 0.00 0.00 76 1015.8